Pagrindinis puslapis
METAR-TAF:

METAR-TAF

Oro uostai :

Algeras, Italija

platuma: 40-38N, ilguma: 008-17E, Aukštis: 23 m

Dabartinis oras

Ataskaita buvo paskelbta 20 minutes, ne 04:20 UTC
Vėjas 9 kt iš Vakarų/Šiaurės Vakarų su gūsio iki 19 kt, svyruoja nuo Vakarų ir Šiaurės/Šiaurės Vakarų
Temperatūra 12°C
Drėgmė 67%
Slėgis 1026 hPa
Matomumas 10 km arba daugiau
Mažai debesys ne aukštis 3000 ft

METAR: LIEA 180420Z 30009G19KT 270V340 9999 FEW030 12/06 Q1026

Laikas: 05:40 (04:40 UTC)

Prognozė

Ataskaita buvo paskelbta 5 valandos ir 40 minutes, ne 23:00 UTC
Prognozė galioja nuo 18 metu 00 UTC su 18 metu 24 UTC
Vėjas 12 kt iš Vakarų/Šiaurės Vakarų
Matomumas 10 km arba daugiau
Išsisklaidę debesys ne aukštis 3000 ft

TAF: LIEA 172300Z 1800/1824 30012KT 9999 SCT030

Orai ataskaitas ir orų prognozės (METAR, TAF).

turimą stotys yra geltonos ir raudonos taškus žemėlapyje.

Perkelti pele per norėdami pamatyti stoties vardą.

Tada spustelėkite, norėdami matyti oro stebėjimo ir prognozės.

Norėdami pakeisti žemėlapį: spustelėkite ant žalios mygtukų su juodo kryžiaus žemyn,; žalią mygtuką su brūkšneliu, jei norite nutolinti; arba žalių rodyklių gretimoms žemėlapius.


METAR-TAF: